createdAt,value
2023-01-01T00:00:48.796Z,154.50
2023-01-01T00:03:16.370Z,161.18
2023-01-01T00:05:43.780Z,169.85
2023-01-01T00:08:29.433Z,151.50
2023-01-01T00:11:01.410Z,134.93
2023-01-01T00:15:56.044Z,109.03
2023-01-01T00:18:23.422Z,102.63
2023-01-01T00:20:50.805Z,96.78
2023-01-01T00:23:18.189Z,86.80
2023-01-01T00:25:45.511Z,80.53
2023-01-01T00:28:13.069Z,81.55
2023-01-01T00:30:41.785Z,79.75
2023-01-01T00:33:09.191Z,74.82
2023-01-01T00:35:36.580Z,57.10
2023-01-01T00:38:04.001Z,45.78
2023-01-01T00:40:31.583Z,42.10
2023-01-01T00:42:58.937Z,41.90
2023-01-01T00:45:26.284Z,42.70
2023-01-01T00:47:54.357Z,38.50
2023-01-01T00:50:22.543Z,34.78
2023-01-01T00:52:50.505Z,34.83
2023-01-01T00:55:18.103Z,36.50
2023-01-01T00:57:45.504Z,36.95
2023-01-01T01:00:13.913Z,38.58
2023-01-01T01:02:41.562Z,41.20
2023-01-01T01:05:09.689Z,42.38
2023-01-01T01:07:38.130Z,45.15
2023-01-01T01:10:06.355Z,49.15
2023-01-01T01:12:34.937Z,49.30
2023-01-01T01:15:03.442Z,50.15
2023-01-01T01:17:31.180Z,47.83
2023-01-01T01:19:58.885Z,47.35
2023-01-01T01:22:28.921Z,47.58
2023-01-01T01:24:57.803Z,46.40
2023-01-01T01:27:25.419Z,43.60
2023-01-01T01:29:53.853Z,44.92
2023-01-01T01:32:39.978Z,43.25
2023-01-01T01:35:07.780Z,44.40
2023-01-01T01:37:35.293Z,43.80
2023-01-01T01:40:02.847Z,43.33
2023-01-01T01:42:30.215Z,43.70
2023-01-01T01:45:00.817Z,42.80
2023-01-01T01:47:39.471Z,42.15
2023-01-01T01:50:13.611Z,39.88
2023-01-01T01:52:51.974Z,37.88
2023-01-01T01:55:19.363Z,38.42
2023-01-01T01:57:46.763Z,37.65
2023-01-01T02:00:14.717Z,37.15
2023-01-01T02:02:54.701Z,37.95
2023-01-01T02:05:22.964Z,36.40
2023-01-01T02:07:52.540Z,35.70
2023-01-01T02:10:20.096Z,35.00
2023-01-01T02:12:47.700Z,33.92
2023-01-01T02:15:15.424Z,34.85
2023-01-01T02:17:57.711Z,33.88
2023-01-01T02:20:31.208Z,33.33
2023-01-01T02:23:26.451Z,33.40
2023-01-01T02:26:21.095Z,32.83
2023-01-01T02:29:01.105Z,33.15
2023-01-01T02:31:35.447Z,32.83
2023-01-01T02:34:06.842Z,32.30
2023-01-01T02:36:39.773Z,32.25
2023-01-01T02:39:09.429Z,31.42
2023-01-01T02:41:42.257Z,32.55
2023-01-01T02:44:11.766Z,78.13
2023-01-01T02:46:39.217Z,32.17
2023-01-01T02:49:10.643Z,32.58
2023-01-01T02:52:06.690Z,31.98
2023-01-01T02:54:37.909Z,30.58
2023-01-01T02:57:31.544Z,33.53
2023-01-01T03:00:21.604Z,30.83
2023-01-01T03:03:01.184Z,31.30
2023-01-01T03:05:37.436Z,33.47
2023-01-01T03:08:10.221Z,33.22
2023-01-01T03:10:56.408Z,34.20
2023-01-01T03:13:49.978Z,31.90
2023-01-01T03:16:39.429Z,30.92
2023-01-01T03:19:25.892Z,29.30
2023-01-01T03:22:02.535Z,29.98
2023-01-01T03:24:34.491Z,30.35
2023-01-01T03:29:40.375Z,30.25
2023-01-01T03:32:15.915Z,29.00
2023-01-01T03:34:53.175Z,29.25
2023-01-01T03:37:26.232Z,28.70
2023-01-01T03:39:57.940Z,29.25
2023-01-01T03:42:36.414Z,30.17
2023-01-01T03:45:10.674Z,28.60
2023-01-01T03:47:38.355Z,28.35
2023-01-01T03:50:06.558Z,28.02
2023-01-01T03:52:49.299Z,28.33
2023-01-01T03:55:31.375Z,27.65
2023-01-01T03:58:07.764Z,26.50
2023-01-01T04:00:40.119Z,27.38
2023-01-01T04:03:23.622Z,27.40
2023-01-01T04:05:51.641Z,27.15
2023-01-01T04:08:19.596Z,28.60
2023-01-01T04:10:56.413Z,28.63
2023-01-01T04:13:24.277Z,28.67
2023-01-01T04:15:52.243Z,28.15
2023-01-01T04:18:19.798Z,27.98
2023-01-01T04:20:47.268Z,27.08
2023-01-01T04:23:14.969Z,27.48
2023-01-01T04:25:42.347Z,26.45
2023-01-01T04:28:09.759Z,27.15
2023-01-01T04:33:03.401Z,25.83
2023-01-01T04:35:30.841Z,27.67
2023-01-01T04:38:00.587Z,26.13
2023-01-01T04:40:28.017Z,26.42
2023-01-01T04:42:55.430Z,27.35
2023-01-01T04:45:22.931Z,26.88
2023-01-01T04:47:50.533Z,26.25
2023-01-01T04:50:17.949Z,27.42
2023-01-01T04:52:45.436Z,27.88
2023-01-01T04:55:12.907Z,26.75
2023-01-01T04:57:40.600Z,28.08
2023-01-01T05:00:08.783Z,27.02
2023-01-01T05:02:36.287Z,26.95
2023-01-01T05:05:04.024Z,27.92
2023-01-01T05:07:33.632Z,28.70
2023-01-01T05:10:00.993Z,27.10
2023-01-01T05:12:30.178Z,27.73
2023-01-01T05:14:57.664Z,27.52
2023-01-01T05:17:25.056Z,27.88
2023-01-01T05:19:52.451Z,28.25
2023-01-01T05:22:19.864Z,29.65
2023-01-01T05:24:47.301Z,31.02
2023-01-01T05:27:14.688Z,31.13
2023-01-01T05:29:42.136Z,29.50
2023-01-01T05:37:02.015Z,32.13
2023-01-01T05:39:29.351Z,33.45
2023-01-01T05:41:58.241Z,33.15
2023-01-01T05:44:26.048Z,29.35
2023-01-01T05:46:53.431Z,32.00
2023-01-01T05:49:20.771Z,31.13
2023-01-01T05:51:48.079Z,29.60
2023-01-01T05:56:41.818Z,30.05
2023-01-01T05:59:10.815Z,29.58
2023-01-01T06:01:45.184Z,29.52
2023-01-01T06:04:13.557Z,31.08
2023-01-01T06:06:41.106Z,30.80
2023-01-01T06:09:10.809Z,29.83
2023-01-01T06:11:38.341Z,29.70
2023-01-01T06:14:05.830Z,28.38
2023-01-01T06:16:33.317Z,30.35
2023-01-01T06:19:00.837Z,30.13
2023-01-01T06:21:29.582Z,30.50
2023-01-01T06:24:00.365Z,32.42
2023-01-01T06:26:30.998Z,31.40
2023-01-01T06:29:00.143Z,32.03
2023-01-01T06:31:28.583Z,30.63
2023-01-01T06:33:56.199Z,31.10
2023-01-01T06:36:25.453Z,30.83
2023-01-01T06:38:55.783Z,30.27
2023-01-01T06:41:25.732Z,31.70
2023-01-01T06:43:58.020Z,30.80
2023-01-01T06:46:28.172Z,30.30
2023-01-01T06:49:07.685Z,29.48
2023-01-01T06:51:40.565Z,30.92
2023-01-01T06:54:09.093Z,30.35
2023-01-01T06:56:37.370Z,29.25
2023-01-01T06:59:05.679Z,28.20
2023-01-01T07:01:39.628Z,28.67
2023-01-01T07:04:11.106Z,27.92
2023-01-01T07:06:39.263Z,28.92
2023-01-01T07:09:08.201Z,28.42
2023-01-01T07:11:36.284Z,26.85
2023-01-01T07:14:03.903Z,27.83
2023-01-01T07:16:31.402Z,27.15
2023-01-01T07:18:58.908Z,28.40
2023-01-01T07:21:29.614Z,26.70
2023-01-01T07:23:59.268Z,27.13
2023-01-01T07:26:28.350Z,27.75
2023-01-01T07:28:59.623Z,28.73
2023-01-01T07:31:34.260Z,27.35
2023-01-01T07:34:01.996Z,27.88
2023-01-01T07:36:29.429Z,26.25
2023-01-01T07:38:56.859Z,26.77
2023-01-01T07:41:24.303Z,25.85
2023-01-01T07:43:52.488Z,27.50
2023-01-01T07:46:20.166Z,27.38
2023-01-01T07:48:47.745Z,26.98
2023-01-01T07:51:15.631Z,26.75
2023-01-01T07:53:43.091Z,25.88
2023-01-01T07:56:10.764Z,27.98
2023-01-01T07:58:41.723Z,27.02
2023-01-01T08:01:14.725Z,27.52
2023-01-01T08:03:42.559Z,27.55
2023-01-01T08:06:12.312Z,27.80
2023-01-01T08:08:40.191Z,26.45
2023-01-01T08:11:08.794Z,26.35
2023-01-01T08:13:36.462Z,25.98
2023-01-01T08:16:04.330Z,23.70
2023-01-01T08:18:31.870Z,22.60
2023-01-01T08:20:59.268Z,23.08
2023-01-01T08:23:26.798Z,22.50
2023-01-01T08:25:58.014Z,22.85
2023-01-01T08:28:25.305Z,23.00
2023-01-01T08:30:52.915Z,23.02
2023-01-01T08:33:21.176Z,25.92
2023-01-01T08:35:54.004Z,25.58
2023-01-01T08:38:22.235Z,30.17
2023-01-01T08:40:49.749Z,35.60
2023-01-01T08:43:17.470Z,37.05
2023-01-01T08:45:45.763Z,38.40
2023-01-01T08:48:13.143Z,41.60
2023-01-01T08:50:40.520Z,44.00
2023-01-01T08:53:07.948Z,42.28
2023-01-01T08:55:35.586Z,45.53
2023-01-01T08:58:06.701Z,44.72
2023-01-01T09:00:34.052Z,47.77
2023-01-01T09:03:01.635Z,46.58
2023-01-01T09:05:29.156Z,48.38
2023-01-01T09:07:56.549Z,48.60
2023-01-01T09:10:23.963Z,48.58
2023-01-01T09:12:51.385Z,47.70
2023-01-01T09:15:18.793Z,46.85
2023-01-01T09:17:46.179Z,45.63
2023-01-01T09:20:13.680Z,45.33
2023-01-01T09:22:41.073Z,45.70
2023-01-01T09:25:08.693Z,47.92
2023-01-01T09:27:36.131Z,46.20
2023-01-01T09:30:04.439Z,44.65
2023-01-01T09:32:32.116Z,46.65
2023-01-01T09:35:01.125Z,44.15
2023-01-01T09:37:28.639Z,46.35
2023-01-01T09:39:56.067Z,46.47
2023-01-01T09:42:35.981Z,44.33
2023-01-01T09:45:07.614Z,45.38
2023-01-01T09:47:41.301Z,45.72
2023-01-01T09:50:15.139Z,46.17
2023-01-01T09:52:51.360Z,45.50
2023-01-01T09:55:26.006Z,44.97
2023-01-01T09:57:55.606Z,46.65
2023-01-01T10:00:23.383Z,46.28
2023-01-01T10:03:17.264Z,44.88
2023-01-01T10:05:44.551Z,45.10
2023-01-01T10:08:25.053Z,46.58
2023-01-01T10:11:17.558Z,46.13
2023-01-01T10:13:46.272Z,45.35
2023-01-01T10:16:25.478Z,45.47
2023-01-01T10:18:56.896Z,44.65
2023-01-01T10:21:34.178Z,44.60
2023-01-01T10:24:06.175Z,44.95
2023-01-01T10:29:25.285Z,43.03
2023-01-01T10:31:55.315Z,43.53
2023-01-01T10:34:32.377Z,44.20
2023-01-01T10:37:00.984Z,45.15
2023-01-01T10:39:28.544Z,42.95
2023-01-01T10:41:57.975Z,44.58
2023-01-01T10:44:34.531Z,44.70
2023-01-01T10:47:30.117Z,42.65
2023-01-01T10:50:07.654Z,42.85
2023-01-01T10:52:38.024Z,42.30
2023-01-01T10:55:06.704Z,42.53
2023-01-01T10:57:38.617Z,41.60
2023-01-01T11:02:39.068Z,40.67
2023-01-01T11:05:21.425Z,42.30
2023-01-01T11:07:50.224Z,40.88
2023-01-01T11:10:24.010Z,39.38
2023-01-01T11:13:09.177Z,40.95
2023-01-01T11:15:42.092Z,40.30
2023-01-01T11:18:41.859Z,40.40
2023-01-01T11:21:09.461Z,40.25
2023-01-01T11:23:39.583Z,41.08
2023-01-01T11:26:20.958Z,40.13
2023-01-01T11:29:14.651Z,40.47
2023-01-01T11:31:48.110Z,40.80
2023-01-01T11:34:38.204Z,40.55
2023-01-01T11:37:19.761Z,41.15
2023-01-01T11:39:51.073Z,40.00
2023-01-01T11:42:27.425Z,40.42
2023-01-01T11:44:59.493Z,40.92
2023-01-01T11:47:40.759Z,40.28
2023-01-01T11:50:13.806Z,41.92
2023-01-01T11:52:44.476Z,43.00
2023-01-01T11:55:37.830Z,41.15
2023-01-01T11:58:19.915Z,41.67
2023-01-01T12:00:56.304Z,41.15
2023-01-01T12:03:33.794Z,41.95
2023-01-01T12:06:23.792Z,42.42
2023-01-01T12:09:05.231Z,42.08
2023-01-01T12:11:44.614Z,41.78
2023-01-01T12:14:42.600Z,42.63
2023-01-01T12:17:16.844Z,41.63
2023-01-01T12:20:43.995Z,42.97
2023-01-01T12:23:17.572Z,43.53
2023-01-01T12:25:52.610Z,46.72
2023-01-01T12:28:34.135Z,44.60
2023-01-01T12:31:08.096Z,46.28
2023-01-01T12:33:53.457Z,45.95
2023-01-01T12:37:13.418Z,45.53
2023-01-01T12:39:52.862Z,46.55
2023-01-01T12:42:36.586Z,48.53
2023-01-01T12:45:15.899Z,47.35
2023-01-01T12:48:13.944Z,48.25
2023-01-01T12:50:56.094Z,49.40
2023-01-01T12:53:57.881Z,47.88
2023-01-01T12:56:39.618Z,47.53
2023-01-01T12:59:20.162Z,46.92
2023-01-01T13:01:49.557Z,47.10
2023-01-01T13:04:22.323Z,47.45
2023-01-01T13:07:06.774Z,47.17
2023-01-01T13:09:45.320Z,46.00
2023-01-01T13:12:16.542Z,44.58
2023-01-01T13:14:46.409Z,44.03
2023-01-01T13:17:22.675Z,46.20
2023-01-01T13:19:57.886Z,45.25
2023-01-01T13:22:28.288Z,43.25
2023-01-01T13:25:07.584Z,43.83
2023-01-01T13:28:00.674Z,43.75
2023-01-01T13:30:37.554Z,43.28
2023-01-01T13:33:21.519Z,45.00
2023-01-01T13:36:08.464Z,43.33
2023-01-01T13:38:52.710Z,43.65
2023-01-01T13:41:38.750Z,42.63
2023-01-01T13:44:06.060Z,40.70
2023-01-01T13:46:39.393Z,42.28
2023-01-01T13:49:28.306Z,42.25
2023-01-01T13:52:20.521Z,44.45
2023-01-01T13:55:02.394Z,51.83
2023-01-01T13:57:32.451Z,44.70
2023-01-01T14:00:16.487Z,44.00
2023-01-01T14:03:00.610Z,43.55
2023-01-01T14:05:37.421Z,44.22
2023-01-01T14:08:09.933Z,45.47
2023-01-01T14:10:40.623Z,47.10
2023-01-01T14:13:10.802Z,45.00
2023-01-01T14:15:41.683Z,46.30
2023-01-01T14:18:16.480Z,45.22
2023-01-01T14:20:48.224Z,45.65
2023-01-01T14:23:21.719Z,46.08
2023-01-01T14:25:49.623Z,46.67
2023-01-01T14:28:26.031Z,47.40
2023-01-01T14:30:56.153Z,46.80
2023-01-01T14:33:26.930Z,46.85
2023-01-01T14:35:56.859Z,46.30
2023-01-01T14:38:33.390Z,46.95
2023-01-01T14:41:11.394Z,47.00
2023-01-01T14:43:41.413Z,47.92
2023-01-01T14:46:18.651Z,48.05
2023-01-01T14:48:48.361Z,48.05
2023-01-01T14:51:19.799Z,46.42
2023-01-01T14:53:49.222Z,47.58
2023-01-01T14:56:28.635Z,47.10
2023-01-01T14:59:22.302Z,47.95
2023-01-01T15:02:16.876Z,66.32
2023-01-01T15:04:44.575Z,48.80
2023-01-01T15:07:23.798Z,46.05
2023-01-01T15:09:53.989Z,46.83
2023-01-01T15:12:22.912Z,45.50
2023-01-01T15:14:53.129Z,45.47
2023-01-01T15:17:23.444Z,45.63
2023-01-01T15:20:01.583Z,43.90
2023-01-01T15:22:35.159Z,45.63
2023-01-01T15:25:04.210Z,45.42
2023-01-01T15:27:36.699Z,44.88
2023-01-01T15:30:13.222Z,45.17
2023-01-01T15:32:41.538Z,44.10
2023-01-01T15:35:32.803Z,45.17
2023-01-01T15:38:10.828Z,45.65
2023-01-01T15:40:38.314Z,41.95
2023-01-01T15:43:14.502Z,42.13
2023-01-01T15:45:42.671Z,42.45
2023-01-01T15:48:31.796Z,41.78
2023-01-01T15:51:09.205Z,41.25
2023-01-01T15:53:49.161Z,39.63
2023-01-01T15:56:17.689Z,40.33
2023-01-01T15:59:03.723Z,39.47
2023-01-01T16:01:38.936Z,39.60
2023-01-01T16:04:29.043Z,38.30
2023-01-01T16:06:59.862Z,39.75
2023-01-01T16:09:38.811Z,39.45
2023-01-01T16:12:08.358Z,39.10
2023-01-01T16:14:36.126Z,40.08
2023-01-01T16:17:03.829Z,40.40
2023-01-01T16:19:32.479Z,39.50
2023-01-01T16:21:59.856Z,39.88
2023-01-01T16:24:27.859Z,39.25
2023-01-01T16:26:55.228Z,39.63
2023-01-01T16:29:22.619Z,41.25
2023-01-01T16:31:50.935Z,40.60
2023-01-01T16:34:18.305Z,42.67
2023-01-01T16:36:45.974Z,41.15
2023-01-01T16:39:13.515Z,41.92
2023-01-01T16:41:42.772Z,41.95
2023-01-01T16:44:16.783Z,41.85
2023-01-01T16:46:44.265Z,43.20
2023-01-01T16:49:11.747Z,41.45
2023-01-01T16:51:43.461Z,40.08
2023-01-01T16:54:11.752Z,41.10
2023-01-01T16:56:39.112Z,42.25
2023-01-01T16:59:06.482Z,41.42
2023-01-01T17:01:34.027Z,42.00
2023-01-01T17:04:01.458Z,42.85
2023-01-01T17:06:29.290Z,43.35
2023-01-01T17:08:56.775Z,43.03
2023-01-01T17:11:25.046Z,43.63
2023-01-01T17:13:52.958Z,44.63
2023-01-01T17:16:26.363Z,43.15
2023-01-01T17:21:45.918Z,45.08
2023-01-01T17:24:15.278Z,44.78
2023-01-01T17:26:42.792Z,44.60
2023-01-01T17:29:10.379Z,43.75
2023-01-01T17:31:38.199Z,48.25
2023-01-01T17:34:05.623Z,44.17
2023-01-01T17:36:33.013Z,41.95
2023-01-01T17:39:00.367Z,44.15
2023-01-01T17:41:27.780Z,43.70
2023-01-01T17:43:55.951Z,42.42
2023-01-01T17:46:26.031Z,43.97
2023-01-01T17:48:54.524Z,43.78
2023-01-01T17:51:22.775Z,42.85
2023-01-01T17:53:50.236Z,40.15
2023-01-01T17:56:19.608Z,41.78
2023-01-01T17:58:48.003Z,41.42
2023-01-01T18:01:21.625Z,43.08
2023-01-01T18:03:51.633Z,41.88
2023-01-01T18:06:19.194Z,40.90
2023-01-01T18:08:46.853Z,40.78
2023-01-01T18:11:14.670Z,41.45
2023-01-01T18:13:42.055Z,40.92
2023-01-01T18:16:10.254Z,40.13
2023-01-01T18:18:39.166Z,39.72
2023-01-01T18:21:19.348Z,38.28
2023-01-01T18:23:47.728Z,41.13
2023-01-01T18:26:15.840Z,46.78
2023-01-01T18:28:43.315Z,39.00
2023-01-01T18:31:20.532Z,39.38
2023-01-01T18:33:48.036Z,37.08
2023-01-01T18:36:18.611Z,37.50
2023-01-01T18:38:55.563Z,39.75
2023-01-01T18:41:50.737Z,40.00
2023-01-01T18:44:22.379Z,37.10
2023-01-01T18:47:03.921Z,37.67
2023-01-01T18:49:32.099Z,38.72
2023-01-01T18:52:24.446Z,37.60
2023-01-01T18:57:29.909Z,35.58
2023-01-01T19:00:31.232Z,37.78
2023-01-01T19:03:01.764Z,36.80
2023-01-01T19:05:34.118Z,35.17
2023-01-01T19:08:10.321Z,34.58
2023-01-01T19:10:43.128Z,35.60
2023-01-01T19:13:35.031Z,35.22
2023-01-01T19:16:11.688Z,34.83
2023-01-01T19:18:41.763Z,34.70
2023-01-01T19:21:12.104Z,35.40
2023-01-01T19:23:50.668Z,34.55
2023-01-01T19:26:29.781Z,34.63
2023-01-01T19:29:13.096Z,34.53
2023-01-01T19:31:40.954Z,35.45
2023-01-01T19:34:08.380Z,33.70
2023-01-01T19:36:35.711Z,33.78
2023-01-01T19:39:03.319Z,34.38
2023-01-01T19:41:30.746Z,33.95
2023-01-01T19:43:58.108Z,32.88
2023-01-01T19:46:25.516Z,34.58
2023-01-01T19:48:55.821Z,36.30
2023-01-01T19:51:23.399Z,36.13
2023-01-01T19:53:52.548Z,34.95
2023-01-01T19:56:20.575Z,36.28
2023-01-01T19:58:48.446Z,34.38
2023-01-01T20:01:16.118Z,36.75
2023-01-01T20:03:54.256Z,37.30
2023-01-01T20:06:22.395Z,37.00
2023-01-01T20:08:49.840Z,36.63
2023-01-01T20:11:17.397Z,37.17
2023-01-01T20:13:44.827Z,36.80
2023-01-01T20:16:12.423Z,35.97
2023-01-01T20:18:39.895Z,35.35
2023-01-01T20:21:26.924Z,35.53
2023-01-01T20:23:55.572Z,37.35
2023-01-01T20:26:25.624Z,39.50
2023-01-01T20:29:11.719Z,42.95
2023-01-01T20:31:39.779Z,44.92
2023-01-01T20:34:07.496Z,45.22
2023-01-01T20:36:53.508Z,44.47
2023-01-01T20:39:22.510Z,43.50
2023-01-01T20:41:50.185Z,43.25
2023-01-01T20:44:17.772Z,42.30
2023-01-01T20:46:48.092Z,40.63
2023-01-01T20:49:19.491Z,40.45
2023-01-01T20:51:51.376Z,39.90
2023-01-01T20:54:20.209Z,39.97
2023-01-01T20:56:47.886Z,40.58
2023-01-01T20:59:34.757Z,39.70
2023-01-01T21:02:04.974Z,40.90
2023-01-01T21:04:32.706Z,40.55
2023-01-01T21:07:00.159Z,40.88
2023-01-01T21:09:27.487Z,41.85
2023-01-01T21:11:54.881Z,40.92
2023-01-01T21:14:25.172Z,41.17
2023-01-01T21:16:52.914Z,40.33
2023-01-01T21:19:26.260Z,38.53
2023-01-01T21:21:58.542Z,39.00
2023-01-01T21:24:35.302Z,38.85
2023-01-01T21:27:25.976Z,38.85
2023-01-01T21:29:56.063Z,41.30
2023-01-01T21:32:26.867Z,40.30
2023-01-01T21:34:55.545Z,39.83
2023-01-01T21:37:45.192Z,39.78
2023-01-01T21:40:36.863Z,39.65
2023-01-01T21:43:19.309Z,39.03
2023-01-01T21:45:48.541Z,38.33
2023-01-01T21:48:19.263Z,37.50
2023-01-01T21:50:48.417Z,40.17
2023-01-01T21:53:21.917Z,38.53
2023-01-01T21:55:52.288Z,38.05
2023-01-01T21:58:56.911Z,37.58
2023-01-01T22:01:35.954Z,36.78
2023-01-01T22:04:19.575Z,40.30
2023-01-01T22:07:00.673Z,38.78
2023-01-01T22:09:48.645Z,39.63
2023-01-01T22:12:15.956Z,38.35
2023-01-01T22:14:45.837Z,37.95
2023-01-01T22:17:25.129Z,39.22
2023-01-01T22:19:59.093Z,37.95
2023-01-01T22:22:34.182Z,37.03
2023-01-01T22:25:17.907Z,38.08
2023-01-01T22:27:46.137Z,36.72
2023-01-01T22:30:13.475Z,37.22
2023-01-01T22:32:40.875Z,36.10
2023-01-01T22:35:16.980Z,38.70
2023-01-01T22:37:44.353Z,38.05
2023-01-01T22:40:23.732Z,37.95
2023-01-01T22:42:51.136Z,38.45
2023-01-01T22:45:18.596Z,36.97
2023-01-01T22:47:46.167Z,37.05
2023-01-01T22:50:23.401Z,38.08
2023-01-01T22:52:51.049Z,37.88
2023-01-01T22:55:18.917Z,37.83
2023-01-01T22:57:46.344Z,39.55
2023-01-01T23:00:15.302Z,39.22
2023-01-01T23:02:43.244Z,37.40
2023-01-01T23:05:11.533Z,38.75
2023-01-01T23:07:42.064Z,38.38
2023-01-01T23:10:14.962Z,38.08
2023-01-01T23:12:42.342Z,38.38
2023-01-01T23:15:28.930Z,38.28
2023-01-01T23:17:56.345Z,37.85
2023-01-01T23:20:23.765Z,39.53
2023-01-01T23:22:54.203Z,38.22
2023-01-01T23:25:22.762Z,38.17
2023-01-01T23:27:52.664Z,38.15
2023-01-01T23:30:20.131Z,38.60
2023-01-01T23:32:47.819Z,38.33
2023-01-01T23:35:16.898Z,40.67
2023-01-01T23:37:44.337Z,38.33
2023-01-01T23:40:11.926Z,38.67
2023-01-01T23:42:39.280Z,37.45
2023-01-01T23:45:06.961Z,38.45
2023-01-01T23:47:34.668Z,38.67
2023-01-01T23:50:02.498Z,38.85
2023-01-01T23:52:30.119Z,38.88
2023-01-01T23:54:57.484Z,39.03
2023-01-01T23:57:24.845Z,38.90
2023-01-01T23:59:52.190Z,39.63
